sensor_id;sensor_type;location;lat;lon;timestamp;temperature;humidity
4813;DHT22;2420;51.202;8.698;2023-06-14T00:01:20;16.30;1.00
4813;DHT22;2420;51.202;8.698;2023-06-14T00:03:47;16.30;1.00
4813;DHT22;2420;51.202;8.698;2023-06-14T00:06:13;16.30;1.00
4813;DHT22;2420;51.202;8.698;2023-06-14T00:08:39;16.20;1.00
4813;DHT22;2420;51.202;8.698;2023-06-14T00:11:06;16.20;1.00
4813;DHT22;2420;51.202;8.698;2023-06-14T00:13:31;16.10;1.00
4813;DHT22;2420;51.202;8.698;2023-06-14T00:15:57;15.90;1.00
4813;DHT22;2420;51.202;8.698;2023-06-14T00:18:23;15.90;1.00
4813;DHT22;2420;51.202;8.698;2023-06-14T00:20:55;15.70;1.00
4813;DHT22;2420;51.202;8.698;2023-06-14T00:23:21;15.70;1.00
4813;DHT22;2420;51.202;8.698;2023-06-14T00:25:46;15.70;1.00
4813;DHT22;2420;51.202;8.698;2023-06-14T00:28:12;15.60;1.00
4813;DHT22;2420;51.202;8.698;2023-06-14T00:30:38;15.50;1.00
4813;DHT22;2420;51.202;8.698;2023-06-14T00:33:03;15.50;1.00
4813;DHT22;2420;51.202;8.698;2023-06-14T00:35:29;15.50;1.00
4813;DHT22;2420;51.202;8.698;2023-06-14T00:37:55;15.40;1.00
4813;DHT22;2420;51.202;8.698;2023-06-14T00:40:21;15.40;1.00
4813;DHT22;2420;51.202;8.698;2023-06-14T00:42:47;15.30;1.00
4813;DHT22;2420;51.202;8.698;2023-06-14T00:45:13;15.30;1.00
4813;DHT22;2420;51.202;8.698;2023-06-14T00:47:41;15.20;1.00
4813;DHT22;2420;51.202;8.698;2023-06-14T00:50:07;15.20;1.00
4813;DHT22;2420;51.202;8.698;2023-06-14T00:52:33;15.10;1.00
4813;DHT22;2420;51.202;8.698;2023-06-14T00:55:00;15.00;1.00
4813;DHT22;2420;51.202;8.698;2023-06-14T00:57:27;15.10;1.00
4813;DHT22;2420;51.202;8.698;2023-06-14T00:59:52;14.90;1.00
4813;DHT22;2420;51.202;8.698;2023-06-14T01:02:19;14.90;1.00
4813;DHT22;2420;51.202;8.698;2023-06-14T01:04:47;14.90;1.00
4813;DHT22;2420;51.202;8.698;2023-06-14T01:13:03;14.80;1.00
4813;DHT22;2420;51.202;8.698;2023-06-14T01:15:31;14.70;1.00
4813;DHT22;2420;51.202;8.698;2023-06-14T01:17:57;14.70;1.00
4813;DHT22;2420;51.202;8.698;2023-06-14T01:20:30;14.60;1.00
4813;DHT22;2420;51.202;8.698;2023-06-14T01:22:56;14.60;1.00
4813;DHT22;2420;51.202;8.698;2023-06-14T01:25:23;14.60;1.00
4813;DHT22;2420;51.202;8.698;2023-06-14T01:27:50;14.50;1.00
4813;DHT22;2420;51.202;8.698;2023-06-14T01:30:17;14.40;1.00
4813;DHT22;2420;51.202;8.698;2023-06-14T01:32:44;14.40;1.00
4813;DHT22;2420;51.202;8.698;2023-06-14T01:35:10;14.30;1.00
4813;DHT22;2420;51.202;8.698;2023-06-14T01:37:35;14.20;1.00
4813;DHT22;2420;51.202;8.698;2023-06-14T01:40:06;14.10;1.00
4813;DHT22;2420;51.202;8.698;2023-06-14T01:42:37;14.10;1.00
4813;DHT22;2420;51.202;8.698;2023-06-14T01:45:05;14.10;1.00
4813;DHT22;2420;51.202;8.698;2023-06-14T01:47:31;14.10;1.00
4813;DHT22;2420;51.202;8.698;2023-06-14T01:49:58;14.20;1.00
4813;DHT22;2420;51.202;8.698;2023-06-14T01:52:24;14.00;1.00
4813;DHT22;2420;51.202;8.698;2023-06-14T01:54:50;14.00;1.00
4813;DHT22;2420;51.202;8.698;2023-06-14T01:57:16;14.00;1.00
4813;DHT22;2420;51.202;8.698;2023-06-14T01:59:41;13.90;1.00
4813;DHT22;2420;51.202;8.698;2023-06-14T02:02:07;13.80;1.00
4813;DHT22;2420;51.202;8.698;2023-06-14T02:04:33;13.70;1.00
4813;DHT22;2420;51.202;8.698;2023-06-14T02:06:59;13.70;1.00
4813;DHT22;2420;51.202;8.698;2023-06-14T02:09:24;13.60;1.00
4813;DHT22;2420;51.202;8.698;2023-06-14T02:11:50;13.70;1.00
4813;DHT22;2420;51.202;8.698;2023-06-14T02:14:15;13.70;1.00
4813;DHT22;2420;51.202;8.698;2023-06-14T02:16:42;13.60;1.00
4813;DHT22;2420;51.202;8.698;2023-06-14T02:19:17;13.60;1.00
4813;DHT22;2420;51.202;8.698;2023-06-14T02:21:43;13.60;1.00
4813;DHT22;2420;51.202;8.698;2023-06-14T02:24:08;13.50;1.00
4813;DHT22;2420;51.202;8.698;2023-06-14T02:26:34;13.50;1.00
4813;DHT22;2420;51.202;8.698;2023-06-14T02:28:59;13.50;1.00
4813;DHT22;2420;51.202;8.698;2023-06-14T02:31:25;13.50;1.00
4813;DHT22;2420;51.202;8.698;2023-06-14T02:33:51;13.60;1.00
4813;DHT22;2420;51.202;8.698;2023-06-14T02:36:17;13.60;1.00
4813;DHT22;2420;51.202;8.698;2023-06-14T02:38:42;13.70;1.00
4813;DHT22;2420;51.202;8.698;2023-06-14T02:41:08;13.60;1.00
4813;DHT22;2420;51.202;8.698;2023-06-14T02:43:33;13.50;1.00
4813;DHT22;2420;51.202;8.698;2023-06-14T02:45:59;13.50;1.00
4813;DHT22;2420;51.202;8.698;2023-06-14T02:48:24;13.50;1.00
4813;DHT22;2420;51.202;8.698;2023-06-14T02:50:50;13.60;1.00
4813;DHT22;2420;51.202;8.698;2023-06-14T02:53:16;13.60;1.00
4813;DHT22;2420;51.202;8.698;2023-06-14T02:55:42;13.50;1.00
4813;DHT22;2420;51.202;8.698;2023-06-14T02:58:08;13.50;1.00
4813;DHT22;2420;51.202;8.698;2023-06-14T03:00:34;13.50;1.00
4813;DHT22;2420;51.202;8.698;2023-06-14T03:03:00;13.60;1.00
4813;DHT22;2420;51.202;8.698;2023-06-14T03:05:27;13.50;1.00
4813;DHT22;2420;51.202;8.698;2023-06-14T03:07:53;13.50;1.00
4813;DHT22;2420;51.202;8.698;2023-06-14T03:10:19;13.50;1.00
4813;DHT22;2420;51.202;8.698;2023-06-14T03:12:46;13.50;1.00
4813;DHT22;2420;51.202;8.698;2023-06-14T03:15:12;13.60;1.00
4813;DHT22;2420;51.202;8.698;2023-06-14T03:17:38;13.60;1.00
4813;DHT22;2420;51.202;8.698;2023-06-14T03:20:05;13.40;1.00
4813;DHT22;2420;51.202;8.698;2023-06-14T03:22:31;13.40;1.00
4813;DHT22;2420;51.202;8.698;2023-06-14T03:24:59;13.50;1.00
4813;DHT22;2420;51.202;8.698;2023-06-14T03:27:25;13.60;1.00
4813;DHT22;2420;51.202;8.698;2023-06-14T03:29:51;13.60;1.00
4813;DHT22;2420;51.202;8.698;2023-06-14T03:32:16;13.60;1.00
4813;DHT22;2420;51.202;8.698;2023-06-14T03:34:42;13.60;1.00
4813;DHT22;2420;51.202;8.698;2023-06-14T03:37:10;13.50;1.00
4813;DHT22;2420;51.202;8.698;2023-06-14T03:39:35;13.70;1.00
4813;DHT22;2420;51.202;8.698;2023-06-14T03:42:01;13.60;1.00
4813;DHT22;2420;51.202;8.698;2023-06-14T03:44:27;13.60;1.00
4813;DHT22;2420;51.202;8.698;2023-06-14T03:46:53;13.50;1.00
4813;DHT22;2420;51.202;8.698;2023-06-14T03:49:18;13.50;1.00
4813;DHT22;2420;51.202;8.698;2023-06-14T03:51:44;13.50;1.00
4813;DHT22;2420;51.202;8.698;2023-06-14T03:54:10;13.50;1.00
4813;DHT22;2420;51.202;8.698;2023-06-14T03:56:35;13.40;1.00
4813;DHT22;2420;51.202;8.698;2023-06-14T03:59:01;13.40;1.00
4813;DHT22;2420;51.202;8.698;2023-06-14T04:01:27;13.50;1.00
4813;DHT22;2420;51.202;8.698;2023-06-14T04:06:22;13.50;1.00
4813;DHT22;2420;51.202;8.698;2023-06-14T04:08:50;13.70;1.00
4813;DHT22;2420;51.202;8.698;2023-06-14T04:11:16;13.60;1.00
4813;DHT22;2420;51.202;8.698;2023-06-14T04:13:41;13.70;1.00
4813;DHT22;2420;51.202;8.698;2023-06-14T04:16:07;13.70;1.00
4813;DHT22;2420;51.202;8.698;2023-06-14T04:18:33;13.80;1.00
4813;DHT22;2420;51.202;8.698;2023-06-14T04:25:50;13.90;1.00
4813;DHT22;2420;51.202;8.698;2023-06-14T05:00:04;14.10;1.00
4813;DHT22;2420;51.202;8.698;2023-06-14T05:02:31;15.50;1.00
4813;DHT22;2420;51.202;8.698;2023-06-14T05:04:56;15.50;1.00
4813;DHT22;2420;51.202;8.698;2023-06-14T05:07:22;15.70;1.00
4813;DHT22;2420;51.202;8.698;2023-06-14T05:12:15;16.20;1.00
4813;DHT22;2420;51.202;8.698;2023-06-14T05:14:44;17.20;1.00
4813;DHT22;2420;51.202;8.698;2023-06-14T05:17:09;17.50;1.00
4813;DHT22;2420;51.202;8.698;2023-06-14T05:19:35;17.60;1.00
4813;DHT22;2420;51.202;8.698;2023-06-14T05:22:01;17.70;1.00
4813;DHT22;2420;51.202;8.698;2023-06-14T05:24:28;17.60;1.00
4813;DHT22;2420;51.202;8.698;2023-06-14T05:26:56;17.60;1.00
4813;DHT22;2420;51.202;8.698;2023-06-14T05:29:21;17.50;1.00
4813;DHT22;2420;51.202;8.698;2023-06-14T05:31:47;17.60;1.00
4813;DHT22;2420;51.202;8.698;2023-06-14T05:34:12;17.60;1.00
4813;DHT22;2420;51.202;8.698;2023-06-14T05:36:38;17.50;1.00
4813;DHT22;2420;51.202;8.698;2023-06-14T05:39:04;17.60;1.00
4813;DHT22;2420;51.202;8.698;2023-06-14T05:41:31;17.50;1.00
4813;DHT22;2420;51.202;8.698;2023-06-14T05:43:56;17.70;1.00
4813;DHT22;2420;51.202;8.698;2023-06-14T05:46:23;17.40;1.00
4813;DHT22;2420;51.202;8.698;2023-06-14T05:48:54;17.20;1.00
4813;DHT22;2420;51.202;8.698;2023-06-14T05:51:20;17.30;1.00
4813;DHT22;2420;51.202;8.698;2023-06-14T05:53:49;17.30;1.00
4813;DHT22;2420;51.202;8.698;2023-06-14T05:56:15;17.10;1.00
4813;DHT22;2420;51.202;8.698;2023-06-14T05:58:43;17.20;1.00
4813;DHT22;2420;51.202;8.698;2023-06-14T06:01:08;17.30;1.00
4813;DHT22;2420;51.202;8.698;2023-06-14T06:03:34;17.20;1.00
4813;DHT22;2420;51.202;8.698;2023-06-14T06:06:00;17.00;1.00
4813;DHT22;2420;51.202;8.698;2023-06-14T06:08:26;16.90;1.00
4813;DHT22;2420;51.202;8.698;2023-06-14T06:10:52;17.10;1.00
4813;DHT22;2420;51.202;8.698;2023-06-14T06:13:18;16.90;1.00
4813;DHT22;2420;51.202;8.698;2023-06-14T06:15:44;17.00;1.00
4813;DHT22;2420;51.202;8.698;2023-06-14T06:18:10;16.70;1.00
4813;DHT22;2420;51.202;8.698;2023-06-14T06:20:35;16.60;1.00
4813;DHT22;2420;51.202;8.698;2023-06-14T06:23:02;16.40;1.00
4813;DHT22;2420;51.202;8.698;2023-06-14T06:25:28;16.30;1.00
4813;DHT22;2420;51.202;8.698;2023-06-14T06:27:54;16.40;1.00
4813;DHT22;2420;51.202;8.698;2023-06-14T06:30:22;16.10;1.00
4813;DHT22;2420;51.202;8.698;2023-06-14T06:32:47;16.20;1.00
4813;DHT22;2420;51.202;8.698;2023-06-14T06:35:13;16.20;1.00
4813;DHT22;2420;51.202;8.698;2023-06-14T06:37:40;16.50;1.00
4813;DHT22;2420;51.202;8.698;2023-06-14T06:40:06;16.70;1.00
4813;DHT22;2420;51.202;8.698;2023-06-14T06:42:32;16.60;1.00
4813;DHT22;2420;51.202;8.698;2023-06-14T06:44:58;16.60;1.00
4813;DHT22;2420;51.202;8.698;2023-06-14T06:47:23;16.70;1.00
4813;DHT22;2420;51.202;8.698;2023-06-14T06:49:50;16.60;1.00
4813;DHT22;2420;51.202;8.698;2023-06-14T06:52:16;16.60;1.00
4813;DHT22;2420;51.202;8.698;2023-06-14T06:54:41;16.50;1.00
4813;DHT22;2420;51.202;8.698;2023-06-14T06:57:07;16.60;1.00
4813;DHT22;2420;51.202;8.698;2023-06-14T06:59:33;16.60;1.00
4813;DHT22;2420;51.202;8.698;2023-06-14T07:01:59;16.50;1.00
4813;DHT22;2420;51.202;8.698;2023-06-14T07:04:24;16.20;1.00
4813;DHT22;2420;51.202;8.698;2023-06-14T07:06:50;16.20;1.00
4813;DHT22;2420;51.202;8.698;2023-06-14T07:09:16;16.40;1.00
4813;DHT22;2420;51.202;8.698;2023-06-14T07:11:46;16.30;1.00
4813;DHT22;2420;51.202;8.698;2023-06-14T07:14:12;16.10;1.00
4813;DHT22;2420;51.202;8.698;2023-06-14T07:16:38;16.30;1.00
4813;DHT22;2420;51.202;8.698;2023-06-14T07:19:04;16.40;1.00
4813;DHT22;2420;51.202;8.698;2023-06-14T07:21:30;16.70;1.00
4813;DHT22;2420;51.202;8.698;2023-06-14T07:23:56;16.90;1.00
4813;DHT22;2420;51.202;8.698;2023-06-14T07:26:22;16.90;1.00
4813;DHT22;2420;51.202;8.698;2023-06-14T07:28:48;16.90;1.00
4813;DHT22;2420;51.202;8.698;2023-06-14T07:31:15;16.80;1.00
4813;DHT22;2420;51.202;8.698;2023-06-14T07:33:41;17.10;1.00
4813;DHT22;2420;51.202;8.698;2023-06-14T07:36:07;17.20;1.00
4813;DHT22;2420;51.202;8.698;2023-06-14T07:38:33;17.30;1.00
4813;DHT22;2420;51.202;8.698;2023-06-14T07:40:59;17.50;1.00
4813;DHT22;2420;51.202;8.698;2023-06-14T07:43:25;17.90;1.00
4813;DHT22;2420;51.202;8.698;2023-06-14T07:45:50;18.30;1.00
4813;DHT22;2420;51.202;8.698;2023-06-14T07:48:16;18.30;1.00
4813;DHT22;2420;51.202;8.698;2023-06-14T07:50:42;18.50;1.00
4813;DHT22;2420;51.202;8.698;2023-06-14T07:53:07;18.60;1.00
4813;DHT22;2420;51.202;8.698;2023-06-14T07:55:33;18.40;1.00
4813;DHT22;2420;51.202;8.698;2023-06-14T07:58:06;18.00;1.00
4813;DHT22;2420;51.202;8.698;2023-06-14T08:00:31;18.10;1.00
4813;DHT22;2420;51.202;8.698;2023-06-14T08:02:57;18.40;1.00
4813;DHT22;2420;51.202;8.698;2023-06-14T08:05:24;18.10;1.00
4813;DHT22;2420;51.202;8.698;2023-06-14T08:07:51;18.20;1.00
4813;DHT22;2420;51.202;8.698;2023-06-14T08:10:17;18.20;1.00
4813;DHT22;2420;51.202;8.698;2023-06-14T08:12:42;18.30;1.00
4813;DHT22;2420;51.202;8.698;2023-06-14T08:15:08;18.50;1.00
4813;DHT22;2420;51.202;8.698;2023-06-14T08:17:34;19.10;1.00
4813;DHT22;2420;51.202;8.698;2023-06-14T08:20:00;19.50;1.00
4813;DHT22;2420;51.202;8.698;2023-06-14T08:22:25;19.70;1.00
4813;DHT22;2420;51.202;8.698;2023-06-14T08:24:53;19.90;1.00
4813;DHT22;2420;51.202;8.698;2023-06-14T08:27:19;20.00;1.00
4813;DHT22;2420;51.202;8.698;2023-06-14T08:29:46;19.20;1.00
4813;DHT22;2420;51.202;8.698;2023-06-14T08:32:12;19.50;1.00
4813;DHT22;2420;51.202;8.698;2023-06-14T08:34:38;19.80;1.00
4813;DHT22;2420;51.202;8.698;2023-06-14T08:37:03;19.40;1.00
4813;DHT22;2420;51.202;8.698;2023-06-14T08:39:30;19.50;1.00
4813;DHT22;2420;51.202;8.698;2023-06-14T08:41:56;19.30;1.00
4813;DHT22;2420;51.202;8.698;2023-06-14T08:44:22;19.20;1.00
4813;DHT22;2420;51.202;8.698;2023-06-14T08:46:48;19.20;1.00
4813;DHT22;2420;51.202;8.698;2023-06-14T08:49:16;19.50;1.00
4813;DHT22;2420;51.202;8.698;2023-06-14T08:51:43;19.40;1.00
4813;DHT22;2420;51.202;8.698;2023-06-14T08:54:11;19.60;1.00
4813;DHT22;2420;51.202;8.698;2023-06-14T08:56:38;19.30;1.00
4813;DHT22;2420;51.202;8.698;2023-06-14T08:59:07;19.50;1.00
4813;DHT22;2420;51.202;8.698;2023-06-14T09:01:34;19.70;1.00
4813;DHT22;2420;51.202;8.698;2023-06-14T09:04:00;20.10;1.00
4813;DHT22;2420;51.202;8.698;2023-06-14T09:06:27;19.90;1.00
4813;DHT22;2420;51.202;8.698;2023-06-14T09:08:55;20.20;1.00
4813;DHT22;2420;51.202;8.698;2023-06-14T09:11:24;20.20;1.00
4813;DHT22;2420;51.202;8.698;2023-06-14T09:13:51;19.30;1.00
4813;DHT22;2420;51.202;8.698;2023-06-14T09:16:16;19.00;1.00
4813;DHT22;2420;51.202;8.698;2023-06-14T09:18:47;19.00;1.00
4813;DHT22;2420;51.202;8.698;2023-06-14T09:21:16;19.50;1.00
4813;DHT22;2420;51.202;8.698;2023-06-14T09:23:44;19.80;1.00
4813;DHT22;2420;51.202;8.698;2023-06-14T09:26:12;19.70;1.00
4813;DHT22;2420;51.202;8.698;2023-06-14T09:28:46;19.50;1.00
4813;DHT22;2420;51.202;8.698;2023-06-14T09:31:14;18.70;1.00
4813;DHT22;2420;51.202;8.698;2023-06-14T09:33:42;18.60;1.00
4813;DHT22;2420;51.202;8.698;2023-06-14T09:36:18;19.00;1.00
4813;DHT22;2420;51.202;8.698;2023-06-14T09:38:59;19.10;1.00
4813;DHT22;2420;51.202;8.698;2023-06-14T09:41:36;19.20;1.00
4813;DHT22;2420;51.202;8.698;2023-06-14T09:44:03;19.40;1.00
4813;DHT22;2420;51.202;8.698;2023-06-14T09:46:30;19.80;1.00
4813;DHT22;2420;51.202;8.698;2023-06-14T09:48:59;19.20;1.00
4813;DHT22;2420;51.202;8.698;2023-06-14T09:51:26;19.70;1.00
4813;DHT22;2420;51.202;8.698;2023-06-14T09:53:53;20.40;1.00
4813;DHT22;2420;51.202;8.698;2023-06-14T09:56:31;20.50;1.00
4813;DHT22;2420;51.202;8.698;2023-06-14T09:58:58;20.70;1.00
4813;DHT22;2420;51.202;8.698;2023-06-14T10:01:24;20.50;1.00
4813;DHT22;2420;51.202;8.698;2023-06-14T10:03:55;20.50;1.00
4813;DHT22;2420;51.202;8.698;2023-06-14T10:06:25;20.50;1.00
4813;DHT22;2420;51.202;8.698;2023-06-14T10:08:56;20.60;1.00
4813;DHT22;2420;51.202;8.698;2023-06-14T10:11:22;20.90;1.00
4813;DHT22;2420;51.202;8.698;2023-06-14T10:13:48;21.10;1.00
4813;DHT22;2420;51.202;8.698;2023-06-14T10:16:22;20.00;1.00
4813;DHT22;2420;51.202;8.698;2023-06-14T10:18:53;19.80;1.00
4813;DHT22;2420;51.202;8.698;2023-06-14T10:24:01;20.50;1.00
4813;DHT22;2420;51.202;8.698;2023-06-14T10:26:28;20.90;1.00
4813;DHT22;2420;51.202;8.698;2023-06-14T10:29:07;20.60;1.00
4813;DHT22;2420;51.202;8.698;2023-06-14T10:31:43;20.30;1.00
4813;DHT22;2420;51.202;8.698;2023-06-14T10:34:09;20.60;1.00
4813;DHT22;2420;51.202;8.698;2023-06-14T10:36:35;20.60;1.00
4813;DHT22;2420;51.202;8.698;2023-06-14T10:39:04;20.40;1.00
4813;DHT22;2420;51.202;8.698;2023-06-14T10:41:34;20.50;1.00
4813;DHT22;2420;51.202;8.698;2023-06-14T10:46:41;20.20;1.00
4813;DHT22;2420;51.202;8.698;2023-06-14T10:49:11;19.80;1.00
4813;DHT22;2420;51.202;8.698;2023-06-14T10:51:41;19.50;1.00
4813;DHT22;2420;51.202;8.698;2023-06-14T10:54:15;19.70;1.00
4813;DHT22;2420;51.202;8.698;2023-06-14T10:56:52;20.30;1.00
4813;DHT22;2420;51.202;8.698;2023-06-14T10:59:19;20.60;1.00
4813;DHT22;2420;51.202;8.698;2023-06-14T11:01:58;20.90;1.00
4813;DHT22;2420;51.202;8.698;2023-06-14T11:05:03;20.90;1.00
4813;DHT22;2420;51.202;8.698;2023-06-14T11:10:40;21.60;1.00
4813;DHT22;2420;51.202;8.698;2023-06-14T11:13:09;21.10;1.00
4813;DHT22;2420;51.202;8.698;2023-06-14T11:15:36;20.60;1.00
4813;DHT22;2420;51.202;8.698;2023-06-14T11:18:08;20.50;1.00
4813;DHT22;2420;51.202;8.698;2023-06-14T11:20:36;20.30;1.00
4813;DHT22;2420;51.202;8.698;2023-06-14T11:23:03;20.60;1.00
4813;DHT22;2420;51.202;8.698;2023-06-14T11:25:29;20.70;1.00
4813;DHT22;2420;51.202;8.698;2023-06-14T11:27:55;20.50;1.00
4813;DHT22;2420;51.202;8.698;2023-06-14T11:30:22;20.40;1.00
4813;DHT22;2420;51.202;8.698;2023-06-14T11:32:48;19.90;1.00
4813;DHT22;2420;51.202;8.698;2023-06-14T11:35:16;20.00;1.00
4813;DHT22;2420;51.202;8.698;2023-06-14T11:37:42;20.50;1.00
4813;DHT22;2420;51.202;8.698;2023-06-14T11:40:08;20.90;1.00
4813;DHT22;2420;51.202;8.698;2023-06-14T11:42:36;21.30;1.00
4813;DHT22;2420;51.202;8.698;2023-06-14T11:45:02;21.60;1.00
4813;DHT22;2420;51.202;8.698;2023-06-14T11:47:35;21.80;1.00
4813;DHT22;2420;51.202;8.698;2023-06-14T11:50:01;22.20;1.00
4813;DHT22;2420;51.202;8.698;2023-06-14T11:52:28;22.30;1.00
4813;DHT22;2420;51.202;8.698;2023-06-14T11:54:54;22.00;1.00
4813;DHT22;2420;51.202;8.698;2023-06-14T11:57:19;21.50;1.00
4813;DHT22;2420;51.202;8.698;2023-06-14T11:59:46;21.50;1.00
4813;DHT22;2420;51.202;8.698;2023-06-14T12:02:18;21.40;1.00
4813;DHT22;2420;51.202;8.698;2023-06-14T12:04:47;21.10;1.00
4813;DHT22;2420;51.202;8.698;2023-06-14T12:07:15;20.50;1.00
4813;DHT22;2420;51.202;8.698;2023-06-14T12:12:25;20.30;1.00
4813;DHT22;2420;51.202;8.698;2023-06-14T12:14:51;20.60;1.00
4813;DHT22;2420;51.202;8.698;2023-06-14T12:17:18;20.90;1.00
4813;DHT22;2420;51.202;8.698;2023-06-14T12:19:45;21.10;1.00
4813;DHT22;2420;51.202;8.698;2023-06-14T12:22:11;20.90;1.00
4813;DHT22;2420;51.202;8.698;2023-06-14T12:24:37;21.20;1.00
4813;DHT22;2420;51.202;8.698;2023-06-14T12:27:04;21.40;1.00
4813;DHT22;2420;51.202;8.698;2023-06-14T12:29:30;22.10;1.00
4813;DHT22;2420;51.202;8.698;2023-06-14T12:31:56;22.40;1.00
4813;DHT22;2420;51.202;8.698;2023-06-14T12:34:26;21.90;1.00
4813;DHT22;2420;51.202;8.698;2023-06-14T12:36:53;21.50;1.00
4813;DHT22;2420;51.202;8.698;2023-06-14T12:39:19;21.00;1.00
4813;DHT22;2420;51.202;8.698;2023-06-14T12:41:44;20.80;1.00
4813;DHT22;2420;51.202;8.698;2023-06-14T12:44:11;20.50;1.00
4813;DHT22;2420;51.202;8.698;2023-06-14T12:46:37;20.40;1.00
4813;DHT22;2420;51.202;8.698;2023-06-14T12:49:05;20.00;1.00
4813;DHT22;2420;51.202;8.698;2023-06-14T12:51:30;20.00;1.00
4813;DHT22;2420;51.202;8.698;2023-06-14T12:53:56;20.20;1.00
4813;DHT22;2420;51.202;8.698;2023-06-14T12:56:22;20.80;1.00
4813;DHT22;2420;51.202;8.698;2023-06-14T12:58:47;21.30;1.00
4813;DHT22;2420;51.202;8.698;2023-06-14T13:01:13;21.80;1.00
4813;DHT22;2420;51.202;8.698;2023-06-14T13:03:38;22.20;1.00
4813;DHT22;2420;51.202;8.698;2023-06-14T13:06:04;22.40;1.00
4813;DHT22;2420;51.202;8.698;2023-06-14T13:08:30;22.50;1.00
4813;DHT22;2420;51.202;8.698;2023-06-14T13:10:56;22.80;1.00
4813;DHT22;2420;51.202;8.698;2023-06-14T13:13:23;22.90;1.00
4813;DHT22;2420;51.202;8.698;2023-06-14T13:15:49;23.00;1.00
4813;DHT22;2420;51.202;8.698;2023-06-14T13:18:15;23.00;1.00
4813;DHT22;2420;51.202;8.698;2023-06-14T13:20:41;22.80;1.00
4813;DHT22;2420;51.202;8.698;2023-06-14T13:23:07;22.90;1.00
4813;DHT22;2420;51.202;8.698;2023-06-14T13:25:34;22.20;1.00
4813;DHT22;2420;51.202;8.698;2023-06-14T13:27:59;22.20;1.00
4813;DHT22;2420;51.202;8.698;2023-06-14T13:30:25;22.30;1.00
4813;DHT22;2420;51.202;8.698;2023-06-14T13:32:51;22.50;1.00
4813;DHT22;2420;51.202;8.698;2023-06-14T13:35:18;22.50;1.00
4813;DHT22;2420;51.202;8.698;2023-06-14T13:37:43;22.50;1.00
4813;DHT22;2420;51.202;8.698;2023-06-14T13:40:09;22.60;1.00
4813;DHT22;2420;51.202;8.698;2023-06-14T13:42:35;22.10;1.00
4813;DHT22;2420;51.202;8.698;2023-06-14T13:45:05;21.60;1.00
4813;DHT22;2420;51.202;8.698;2023-06-14T13:47:31;21.40;1.00
4813;DHT22;2420;51.202;8.698;2023-06-14T13:49:57;21.60;1.00
4813;DHT22;2420;51.202;8.698;2023-06-14T13:52:22;22.00;1.00
4813;DHT22;2420;51.202;8.698;2023-06-14T13:54:48;22.50;1.00
4813;DHT22;2420;51.202;8.698;2023-06-14T13:57:14;22.90;1.00
4813;DHT22;2420;51.202;8.698;2023-06-14T13:59:40;22.60;1.00
4813;DHT22;2420;51.202;8.698;2023-06-14T14:02:06;22.20;1.00
4813;DHT22;2420;51.202;8.698;2023-06-14T14:04:34;22.00;1.00
4813;DHT22;2420;51.202;8.698;2023-06-14T14:07:03;21.90;1.00
4813;DHT22;2420;51.202;8.698;2023-06-14T14:09:28;21.70;1.00
4813;DHT22;2420;51.202;8.698;2023-06-14T14:11:54;21.90;1.00
4813;DHT22;2420;51.202;8.698;2023-06-14T14:14:21;22.10;1.00
4813;DHT22;2420;51.202;8.698;2023-06-14T14:16:46;22.30;1.00
4813;DHT22;2420;51.202;8.698;2023-06-14T14:19:12;22.20;1.00
4813;DHT22;2420;51.202;8.698;2023-06-14T14:21:37;22.30;1.00
4813;DHT22;2420;51.202;8.698;2023-06-14T14:24:03;22.30;1.00
4813;DHT22;2420;51.202;8.698;2023-06-14T14:26:29;22.40;1.00
4813;DHT22;2420;51.202;8.698;2023-06-14T14:28:54;22.40;1.00
4813;DHT22;2420;51.202;8.698;2023-06-14T14:31:20;22.50;1.00
4813;DHT22;2420;51.202;8.698;2023-06-14T14:33:45;22.60;1.00
4813;DHT22;2420;51.202;8.698;2023-06-14T14:36:11;22.70;1.00
4813;DHT22;2420;51.202;8.698;2023-06-14T14:38:36;22.80;1.00
4813;DHT22;2420;51.202;8.698;2023-06-14T14:41:02;22.80;1.00
4813;DHT22;2420;51.202;8.698;2023-06-14T14:43:28;22.40;1.00
4813;DHT22;2420;51.202;8.698;2023-06-14T14:45:56;22.20;1.00
4813;DHT22;2420;51.202;8.698;2023-06-14T14:48:21;22.10;1.00
4813;DHT22;2420;51.202;8.698;2023-06-14T14:50:47;21.90;1.00
4813;DHT22;2420;51.202;8.698;2023-06-14T14:53:13;21.80;1.00
4813;DHT22;2420;51.202;8.698;2023-06-14T14:55:42;21.70;1.00
4813;DHT22;2420;51.202;8.698;2023-06-14T14:58:08;21.60;1.00
4813;DHT22;2420;51.202;8.698;2023-06-14T15:00:34;21.60;1.00
4813;DHT22;2420;51.202;8.698;2023-06-14T15:03:00;21.70;1.00
4813;DHT22;2420;51.202;8.698;2023-06-14T15:05:25;21.80;1.00
4813;DHT22;2420;51.202;8.698;2023-06-14T15:07:51;21.50;1.00
4813;DHT22;2420;51.202;8.698;2023-06-14T15:10:16;21.30;1.00
4813;DHT22;2420;51.202;8.698;2023-06-14T15:12:42;21.10;1.00
4813;DHT22;2420;51.202;8.698;2023-06-14T15:15:08;21.10;1.00
4813;DHT22;2420;51.202;8.698;2023-06-14T15:17:34;20.90;1.00
4813;DHT22;2420;51.202;8.698;2023-06-14T15:20:00;20.70;1.00
4813;DHT22;2420;51.202;8.698;2023-06-14T15:22:26;20.70;1.00
4813;DHT22;2420;51.202;8.698;2023-06-14T15:24:51;20.80;1.00
4813;DHT22;2420;51.202;8.698;2023-06-14T15:27:17;20.80;1.00
4813;DHT22;2420;51.202;8.698;2023-06-14T15:29:43;20.80;1.00
4813;DHT22;2420;51.202;8.698;2023-06-14T15:32:09;20.90;1.00
4813;DHT22;2420;51.202;8.698;2023-06-14T15:34:35;20.90;1.00
4813;DHT22;2420;51.202;8.698;2023-06-14T15:37:01;20.90;1.00
4813;DHT22;2420;51.202;8.698;2023-06-14T15:39:29;20.90;1.00
4813;DHT22;2420;51.202;8.698;2023-06-14T15:41:55;21.00;1.00
4813;DHT22;2420;51.202;8.698;2023-06-14T15:44:21;20.90;1.00
4813;DHT22;2420;51.202;8.698;2023-06-14T15:46:46;20.90;1.00
4813;DHT22;2420;51.202;8.698;2023-06-14T15:49:13;20.70;1.00
4813;DHT22;2420;51.202;8.698;2023-06-14T15:51:39;20.80;1.00
4813;DHT22;2420;51.202;8.698;2023-06-14T15:54:05;20.90;1.00
4813;DHT22;2420;51.202;8.698;2023-06-14T15:56:31;20.90;1.00
4813;DHT22;2420;51.202;8.698;2023-06-14T15:58:56;20.80;1.00
4813;DHT22;2420;51.202;8.698;2023-06-14T16:01:22;20.80;1.00
4813;DHT22;2420;51.202;8.698;2023-06-14T16:03:51;20.80;1.00
4813;DHT22;2420;51.202;8.698;2023-06-14T16:06:17;20.90;1.00
4813;DHT22;2420;51.202;8.698;2023-06-14T16:08:44;20.80;1.00
4813;DHT22;2420;51.202;8.698;2023-06-14T16:11:10;20.90;1.00
4813;DHT22;2420;51.202;8.698;2023-06-14T16:13:35;21.00;1.00
4813;DHT22;2420;51.202;8.698;2023-06-14T16:16:01;21.00;1.00
4813;DHT22;2420;51.202;8.698;2023-06-14T16:18:26;20.80;1.00
4813;DHT22;2420;51.202;8.698;2023-06-14T16:20:52;20.60;1.00
4813;DHT22;2420;51.202;8.698;2023-06-14T16:23:20;20.70;1.00
4813;DHT22;2420;51.202;8.698;2023-06-14T16:25:47;20.60;1.00
4813;DHT22;2420;51.202;8.698;2023-06-14T16:28:13;20.40;1.00
4813;DHT22;2420;51.202;8.698;2023-06-14T16:30:39;20.20;1.00
4813;DHT22;2420;51.202;8.698;2023-06-14T16:33:04;20.30;1.00
4813;DHT22;2420;51.202;8.698;2023-06-14T16:35:31;20.40;1.00
4813;DHT22;2420;51.202;8.698;2023-06-14T16:37:57;20.40;1.00
4813;DHT22;2420;51.202;8.698;2023-06-14T16:40:23;20.40;1.00
4813;DHT22;2420;51.202;8.698;2023-06-14T16:42:49;20.40;1.00
4813;DHT22;2420;51.202;8.698;2023-06-14T16:45:14;20.50;1.00
4813;DHT22;2420;51.202;8.698;2023-06-14T16:47:41;20.50;1.00
4813;DHT22;2420;51.202;8.698;2023-06-14T16:50:07;20.50;1.00
4813;DHT22;2420;51.202;8.698;2023-06-14T16:52:33;20.30;1.00
4813;DHT22;2420;51.202;8.698;2023-06-14T16:54:58;20.30;1.00
4813;DHT22;2420;51.202;8.698;2023-06-14T16:57:24;20.40;1.00
4813;DHT22;2420;51.202;8.698;2023-06-14T16:59:49;20.20;1.00
4813;DHT22;2420;51.202;8.698;2023-06-14T17:02:15;20.20;1.00
4813;DHT22;2420;51.202;8.698;2023-06-14T17:04:40;20.00;1.00
4813;DHT22;2420;51.202;8.698;2023-06-14T17:07:06;20.10;1.00
4813;DHT22;2420;51.202;8.698;2023-06-14T17:09:32;20.20;1.00
4813;DHT22;2420;51.202;8.698;2023-06-14T17:11:57;20.20;1.00